TimeCST,TemperatureF,Dew PointF,Humidity,Sea Level PressureIn,VisibilityMPH,Wind Direction,Wind SpeedMPH,Gust SpeedMPH,PrecipitationIn,Events,Conditions,WindDirDegrees,DateUTC
12:56 AM,62.1,39.9,44,30.27,10.0,NNE,9.2,-,N/A,,Overcast,30,2012-11-15 06:56:00
1:56 AM,61.0,39.0,44,30.25,10.0,NNE,10.4,-,N/A,,Overcast,30,2012-11-15 07:56:00
2:56 AM,61.0,39.9,46,30.23,10.0,NNE,9.2,-,N/A,,Overcast,20,2012-11-15 08:56:00
3:56 AM,61.0,41.0,48,30.23,10.0,NNE,10.4,-,N/A,,Overcast,20,2012-11-15 09:56:00
4:56 AM,61.0,44.1,54,30.22,10.0,NNE,13.8,-,N/A,,Overcast,20,2012-11-15 10:56:00
5:56 AM,61.0,43.0,52,30.22,10.0,NNE,15.0,-,N/A,,Overcast,30,2012-11-15 11:56:00
6:56 AM,60.1,43.0,53,30.24,10.0,NE,12.7,-,N/A,,Overcast,40,2012-11-15 12:56:00
7:56 AM,60.1,44.1,55,30.26,10.0,NE,18.4,-,N/A,,Overcast,40,2012-11-15 13:56:00
8:56 AM,60.1,43.0,53,30.27,10.0,NE,16.1,-,N/A,,Overcast,40,2012-11-15 14:56:00
9:56 AM,61.0,46.9,60,30.28,10.0,NE,15.0,-,N/A,,Overcast,40,2012-11-15 15:56:00
10:56 AM,64.0,48.9,58,30.27,10.0,NE,15.0,-,N/A,,Overcast,40,2012-11-15 16:56:00
11:56 AM,64.9,50.0,58,30.26,10.0,NE,13.8,-,N/A,,Overcast,40,2012-11-15 17:56:00
12:56 PM,64.9,53.1,65,30.23,10.0,NE,15.0,-,N/A,,Overcast,40,2012-11-15 18:56:00
1:56 PM,64.9,54.0,68,30.21,10.0,NE,15.0,-,N/A,,Overcast,40,2012-11-15 19:56:00
2:56 PM,64.9,55.9,73,30.19,10.0,NE,13.8,-,N/A,,Overcast,40,2012-11-15 20:56:00
3:56 PM,64.9,59.0,81,30.18,10.0,NE,15.0,-,N/A,,Overcast,40,2012-11-15 21:56:00
4:56 PM,64.9,60.1,84,30.18,10.0,NE,13.8,-,N/A,,Overcast,40,2012-11-15 22:56:00
5:56 PM,66.9,60.1,79,30.20,10.0,NE,15.0,-,N/A,,Overcast,40,2012-11-15 23:56:00
6:56 PM,66.9,61.0,81,30.20,10.0,NE,15.0,-,N/A,,Overcast,50,2012-11-16 00:56:00
7:56 PM,66.9,61.0,81,30.22,10.0,ENE,13.8,-,N/A,,Overcast,60,2012-11-16 01:56:00
8:56 PM,66.9,59.0,76,30.25,10.0,ENE,12.7,-,N/A,,Overcast,60,2012-11-16 02:56:00
9:56 PM,66.9,57.9,73,30.25,10.0,ENE,11.5,-,N/A,,Overcast,60,2012-11-16 03:56:00
10:56 PM,66.9,55.0,66,30.24,10.0,ENE,11.5,-,N/A,,Overcast,70,2012-11-16 04:56:00
11:56 PM,66.9,54.0,63,30.23,10.0,ENE,10.4,-,N/A,,Overcast,70,2012-11-16 05:56:00